AirNav   TITAN Aviation Fuels
 
 4698 users online  

81R San Saba County Municipal Airport
San Saba, Texas, USA

GOING TO SAN SABA?


FAA INFORMATION EFFECTIVE 20 MAY 2021

Location

FAA Identifier: 81R
Lat/Long: 31-14-08.7015N 098-43-03.7275W
31-14.145025N 098-43.062125W
31.2357504,-98.7177021
(estimated)
Elevation: 1255.2 ft. / 382.6 m (surveyed)
Variation: 07E (1985)
From city: 3 miles N of SAN SABA, TX
Time zone: UTC -5 (UTC -6 during Standard Time)
Zip code: 76877

Airport Operations

Airport use: Open to the public
Activation date: 08/1963
Control tower: no
ARTCC: HOUSTON CENTER
FSS: SAN ANGELO FLIGHT SERVICE STATION
NOTAMs facility: SJT (NOTAM-D service available)
Attendance: UNATNDD
Wind indicator: lighted
Segmented circle: yes
Lights: DUSK-DAWN. ACTVT MIRL RWY 13/31 - CTAF.
Beacon: white-green (lighted land airport)
Operates sunset to sunrise.

Airport Communications

CTAF/UNICOM: 122.8
WX AWOS-3P: 120.525 (325-372-6027)

Nearby radio navigation aids

VOR radial/distance  VOR name  Freq  Var
LLOr360/26.6LLANO VORTAC108.2008E
AGJr271/29.7GOOCH SPRINGS VORTAC112.5005E

Airport Services

Fuel available: 100LL
Parking: tiedowns
Airframe service: NONE
Powerplant service: NONE
Bottled oxygen: NONE
Bulk oxygen: NONE

Runway Information

Runway 13/31

Dimensions: 4205 x 60 ft. / 1282 x 18 m
Surface: asphalt, in good condition
Weight bearing capacity: 
Single wheel: 12.5
Runway edge lights: medium intensity
RUNWAY 13  RUNWAY 31
Latitude: 31-14.385783N31-13.904267N
Longitude: 098-43.352683W098-42.771567W
Elevation: 1255.2 ft.1245.7 ft.
Traffic pattern: leftleft
Runway heading: 127 magnetic, 134 true307 magnetic, 314 true
Markings: nonprecision, in good conditionnonprecision, in good condition
Visual slope indicator: 2-light PAPI on left (3.00 degrees glide path)2-light PAPI on left (3.00 degrees glide path)
Touchdown point: yes, no lightsyes, no lights
Obstructions: 4 ft. hill, 340 ft. from runway, 35:1 slope to clear15 ft. road, 476 ft. from runway, 18:1 slope to clear

Airport Ownership and Management from official FAA records

Ownership: Publicly-owned
Owner: SAN SABA CITY COUNTY
500 E. WALLACE
SAN SABA, TX 76877
Phone 325-372-5144
Manager: STEVE DYER
567 C.R. 105
SAN SABA, TX 76877
Phone 325-372-3380
512-940-4132 AMGR CELL & EMERGENCY FUEL.

Airport Operational Statistics

Aircraft based on the field: 6
Single engine airplanes: 6
    
Aircraft operations: avg 54/week *
43% local general aviation
36% military
22% transient general aviation
* for 12-month period ending 14 May 2020

Additional Remarks

RWY 13, 10 FT DRAINAGE DITCH 30-180 FT FM THR, 60 FT RIGHT OF CNTRLN; 5 FT DITCH 80 FT LEFT OF CNTRLN NEAR THR; 5 FT DITCH 118 FT RIGHT OF CNTRLN NEAR THR.
FOR CD CTC HOUSTON ARTCC AT 281-230-5622.
FREE WIFI IN TRML BLDG.

Instrument Procedures

There are no published instrument procedures at 81R.

Some nearby airports with instrument procedures:

KAQO - Llano Municipal Airport (27 nm S)
KLZZ - Lampasas Airport (28 nm E)
KBBD - Curtis Field Airport (31 nm W)
KBWD - Brownwood Regional Airport (36 nm N)
T92 - Mason County Airport (39 nm SW)
 
Loc | Ops | Rwys | IFR | FBO | Links
Com | Nav | Svcs | Stats | Notes
Area around 81R (San Saba County Municipal Airport)
 
Road maps at: MapQuest Bing Google
 
Aerial photo
WARNING: Photo may not be current or correct
Aerial photo of 81R (San Saba County Municipal Airport)
Photo taken 27-Feb-2005

Do you have a better or more recent aerial photo of San Saba County Municipal Airport that you would like to share? If so, please send us your photo.

 
Sectional chart

 
Airport distance calculator
Flying to San Saba County Municipal Airport? Find the distance to fly.

From to 81R

Sunrise and sunset
Times for 15-Jun-2021
 Local
(UTC-5)
 Zulu
(UTC)
Morning civil twilight06:0311:03
Sunrise06:3111:31
Sunset20:3901:39
Evening civil twilight21:0702:07

Current date and time
Zulu (UTC)  15-Jun-2021 13:24:00
Local (UTC-5)  15-Jun-2021 08:24:00
 
METAR
KAQO 
27nm S 
151255Z AUTO 00000KT 10SM SCT055 BKN070 23/21 A3006 RMK AO2
KLZZ 
28nm E 
151255Z AUTO 01004KT 10SM CLR 24/22 A3004 RMK AO2 T02430219
KBBD 
31nm W 
151255Z AUTO 00000KT 10SM CLR 23/18 A3009 RMK AO2
KMNZ 
39nm NE 
151255Z AUTO 34004KT 10SM CLR 25/25 A3008 RMK AO2 T02500250
KBMQ 
39nm SE 
151253Z AUTO 01005KT 10SM SCT039 26/21 A3008 RMK AO2 SLP165 T02560206
KMKN 
41nm N 
151255Z AUTO 00000KT 10SM CLR 24/23 A3009 RMK AO2 T02400226
KDZB 
46nm SE 
151255Z AUTO 00000KT 10SM CLR 24/20 A3006 RMK AO2 T02400197
KGRK 
47nm E 
151256Z AUTO 36005KT 9SM FEW046 26/22 A3003 RMK AO2 SLP158 T02550222
KGOP 
48nm E 
151255Z AUTO 00000KT 10SM FEW044 26/23 A3006 RMK AO2
TAF
KBBD 
31nm W 
151122Z 1512/1612 VRB03KT P6SM SKC FM151800 06007KT P6SM FEW250
NOTAMs
Click for the latest NOTAMs
NOTAMs are issued by the DoD/FAA and will open in a separate window not controlled by AirNav.

 

 
 

FBO, Fuel Providers, and Aircraft Ground Support

  
 Business Name 
 
 Contact 
 
 Services / Description 
 
Fuel Prices
 
Comments
  
San Saba County Municipal Airport 325-372-3380
no information available

If you are affiliated with San Saba County Municipal Airport and would like to show here your services, contact info, web link, logo, and more, click here
100LL
AS $4.75 
 Updated 20-May-2021
 
   write
AS=Assisted/Self Service
Update Fuel Prices
 

Would you like to see your business listed on this page?

 If your business provides an interesting product or service to pilots, flight crews, aircraft, or users of the San Saba County Municipal Airport, you should consider listing it here.  To start the listing process, click on the button below
 
Add a business
 

Other Pages about San Saba County Municipal Airport

Update a link
 
Copyright © AirNav, LLC. All rights reserved. Privacy Policy  Contact